createdAt,value
2022-12-05T00:00:46.707Z,13.18
2022-12-05T00:05:48.298Z,14.65
2022-12-05T00:10:49.822Z,14.40
2022-12-05T00:15:51.371Z,14.30
2022-12-05T00:20:52.959Z,14.05
2022-12-05T00:25:54.453Z,14.20
2022-12-05T00:30:56.032Z,13.88
2022-12-05T00:36:05.522Z,14.35
2022-12-05T00:41:10.108Z,14.73
2022-12-05T00:46:17.392Z,14.70
2022-12-05T00:51:25.267Z,15.10
2022-12-05T00:56:29.392Z,15.65
2022-12-05T01:01:39.854Z,15.55
2022-12-05T01:06:42.329Z,17.58
2022-12-05T01:11:44.559Z,18.20
2022-12-05T01:16:48.130Z,14.10
2022-12-05T01:21:49.881Z,16.48
2022-12-05T01:26:51.611Z,16.13
2022-12-05T01:31:54.216Z,17.70
2022-12-05T01:36:55.729Z,16.52
2022-12-05T01:41:57.218Z,17.48
2022-12-05T01:46:58.706Z,17.15
2022-12-05T01:52:10.382Z,17.83
2022-12-05T01:57:13.835Z,16.83
2022-12-05T02:02:15.670Z,18.90
2022-12-05T02:07:19.212Z,18.23
2022-12-05T02:12:21.814Z,17.05
2022-12-05T02:17:29.157Z,15.68
2022-12-05T02:23:08.148Z,15.80
2022-12-05T02:28:09.568Z,16.60
2022-12-05T02:33:29.936Z,16.30
2022-12-05T02:38:35.943Z,15.35
2022-12-05T02:43:48.264Z,12.20
2022-12-05T02:48:54.249Z,17.25
2022-12-05T02:53:59.571Z,11.23
2022-12-05T02:59:01.554Z,15.68
2022-12-05T03:04:05.040Z,16.30
2022-12-05T03:09:22.301Z,14.85
2022-12-05T03:14:28.835Z,15.60
2022-12-05T03:19:37.095Z,15.77
2022-12-05T03:24:40.649Z,16.38
2022-12-05T03:29:54.005Z,15.48
2022-12-05T03:35:03.541Z,16.88
2022-12-05T03:40:13.300Z,15.30
2022-12-05T03:45:25.061Z,15.38
2022-12-05T03:50:29.119Z,16.73
2022-12-05T03:55:35.695Z,16.05
2022-12-05T04:00:43.149Z,16.52
2022-12-05T04:05:59.097Z,16.38
2022-12-05T04:11:05.176Z,19.23
2022-12-05T04:16:20.545Z,16.97
2022-12-05T04:21:29.528Z,17.50
2022-12-05T04:26:32.577Z,17.20
2022-12-05T04:31:43.886Z,18.92
2022-12-05T04:36:54.152Z,17.35
2022-12-05T04:42:06.354Z,19.25
2022-12-05T04:47:10.732Z,18.05
2022-12-05T04:52:13.289Z,18.90
2022-12-05T04:57:53.737Z,17.92
2022-12-05T05:03:02.971Z,17.25
2022-12-05T05:08:04.917Z,21.35
2022-12-05T05:13:06.537Z,20.40
2022-12-05T05:18:09.808Z,21.63
2022-12-05T05:23:11.327Z,20.48
2022-12-05T05:28:12.808Z,23.92
2022-12-05T05:33:14.587Z,22.25
2022-12-05T05:38:16.069Z,19.85
2022-12-05T05:43:17.546Z,22.30
2022-12-05T05:48:19.038Z,23.35
2022-12-05T05:53:20.542Z,23.25
2022-12-05T05:58:22.442Z,20.33
2022-12-05T06:03:24.126Z,21.77
2022-12-05T06:08:25.885Z,23.90
2022-12-05T06:13:27.558Z,21.80
2022-12-05T06:18:29.037Z,22.67
2022-12-05T06:23:30.540Z,21.45
2022-12-05T06:28:32.522Z,21.98
2022-12-05T06:33:34.060Z,21.85
2022-12-05T06:38:39.154Z,22.58
2022-12-05T06:43:43.694Z,20.17
2022-12-05T06:48:45.212Z,24.10
2022-12-05T06:53:47.019Z,23.13
2022-12-05T06:58:49.995Z,23.83
2022-12-05T07:03:51.509Z,23.73
2022-12-05T07:08:53.054Z,23.60
2022-12-05T07:13:54.826Z,24.00
2022-12-05T07:18:56.360Z,22.42
2022-12-05T07:23:57.852Z,24.40
2022-12-05T07:28:59.399Z,23.30
2022-12-05T07:34:00.973Z,24.52
2022-12-05T07:39:02.717Z,23.17
2022-12-05T07:44:04.304Z,23.33
2022-12-05T07:49:06.640Z,22.85
2022-12-05T07:54:08.227Z,24.85
2022-12-05T07:59:09.715Z,25.23
2022-12-05T08:04:15.287Z,24.98
2022-12-05T08:09:17.177Z,26.07
2022-12-05T08:14:18.809Z,24.92
2022-12-05T08:19:20.307Z,22.67
2022-12-05T08:24:21.864Z,25.35
2022-12-05T08:29:23.357Z,22.92
2022-12-05T08:34:24.905Z,23.98
2022-12-05T08:39:26.428Z,23.30
2022-12-05T08:44:28.061Z,21.55
2022-12-05T08:49:29.517Z,21.70
2022-12-05T08:54:31.096Z,24.00
2022-12-05T08:59:32.705Z,20.27
2022-12-05T09:04:34.184Z,20.20
2022-12-05T09:09:35.898Z,19.95
2022-12-05T09:14:37.489Z,21.80
2022-12-05T09:19:39.020Z,18.85
2022-12-05T09:24:40.512Z,20.52
2022-12-05T09:29:42.062Z,24.48
2022-12-05T09:34:43.613Z,21.98
2022-12-05T09:39:45.136Z,21.50
2022-12-05T09:45:11.141Z,21.95
2022-12-05T09:50:24.139Z,22.92
2022-12-05T09:55:33.333Z,21.00
2022-12-05T10:00:34.996Z,18.63
2022-12-05T10:05:43.296Z,19.98
2022-12-05T10:11:06.534Z,18.55
2022-12-05T10:16:32.481Z,18.55
2022-12-05T10:21:39.547Z,18.05
2022-12-05T10:26:51.905Z,20.38
2022-12-05T10:32:02.425Z,18.17
2022-12-05T10:37:14.996Z,16.85
2022-12-05T10:42:28.114Z,18.05
2022-12-05T10:47:30.419Z,18.15
2022-12-05T10:52:32.199Z,17.77
2022-12-05T10:57:33.695Z,18.52
2022-12-05T11:02:35.291Z,19.33
2022-12-05T11:07:46.915Z,16.73
2022-12-05T11:12:49.875Z,16.88
2022-12-05T11:17:53.813Z,17.38
2022-12-05T11:22:56.537Z,15.88
2022-12-05T11:28:01.584Z,16.48
2022-12-05T11:33:20.961Z,16.20
2022-12-05T11:38:26.994Z,16.15
2022-12-05T11:43:28.400Z,14.20
2022-12-05T11:48:41.823Z,17.00
2022-12-05T11:53:58.480Z,17.88
2022-12-05T11:59:08.801Z,19.10
2022-12-05T12:04:35.076Z,16.20
2022-12-05T12:10:07.002Z,13.77
2022-12-05T12:15:25.149Z,14.07
2022-12-05T12:20:41.768Z,12.98
2022-12-05T12:25:49.193Z,14.07
2022-12-05T12:30:50.630Z,14.80
2022-12-05T12:36:18.865Z,13.63
2022-12-05T12:41:44.111Z,16.00
2022-12-05T12:47:04.405Z,16.50
2022-12-05T12:52:13.633Z,15.77
2022-12-05T12:57:44.585Z,17.90
2022-12-05T13:02:54.431Z,16.35
2022-12-05T13:08:00.370Z,15.80
2022-12-05T13:13:03.934Z,14.57
2022-12-05T13:18:06.258Z,17.42
2022-12-05T13:23:16.306Z,18.58
2022-12-05T13:28:25.712Z,18.88
2022-12-05T13:33:41.811Z,16.02
2022-12-05T13:38:43.310Z,13.73
2022-12-05T13:44:05.418Z,16.13
2022-12-05T13:49:31.465Z,12.82
2022-12-05T13:54:35.301Z,12.18
2022-12-05T14:00:08.114Z,11.52
2022-12-05T14:05:16.176Z,11.73
2022-12-05T14:10:42.006Z,11.93
2022-12-05T14:15:45.584Z,12.88
2022-12-05T14:20:54.141Z,13.48
2022-12-05T14:26:14.122Z,12.50
2022-12-05T14:31:31.884Z,13.52
2022-12-05T14:36:33.537Z,11.98
2022-12-05T14:41:35.700Z,12.45
2022-12-05T14:46:37.406Z,13.70
2022-12-05T14:51:42.012Z,15.63
2022-12-05T14:56:50.841Z,13.27
2022-12-05T15:01:57.001Z,13.40
2022-12-05T15:07:08.299Z,16.35
2022-12-05T15:12:25.009Z,13.50
2022-12-05T15:17:37.861Z,13.60
2022-12-05T15:22:39.413Z,14.20
2022-12-05T15:27:40.921Z,13.68
2022-12-05T15:32:42.477Z,13.00
2022-12-05T15:37:53.174Z,12.38
2022-12-05T15:42:57.702Z,14.02
2022-12-05T15:48:05.358Z,13.18
2022-12-05T15:53:33.141Z,11.77
2022-12-05T15:58:36.974Z,11.75
2022-12-05T16:03:47.443Z,12.50
2022-12-05T16:08:51.783Z,13.48
2022-12-05T16:14:00.953Z,11.68
2022-12-05T16:19:16.512Z,14.52
2022-12-05T16:24:21.983Z,15.35
2022-12-05T16:29:29.330Z,13.98
2022-12-05T16:34:33.827Z,14.65
2022-12-05T16:39:35.416Z,13.63
2022-12-05T16:44:45.882Z,19.00
2022-12-05T16:49:47.581Z,15.95
2022-12-05T16:54:49.518Z,18.02
2022-12-05T16:59:51.329Z,15.90
2022-12-05T17:04:52.940Z,15.95
2022-12-05T17:09:54.744Z,15.02
2022-12-05T17:14:56.667Z,13.82
2022-12-05T17:19:58.466Z,14.35
2022-12-05T17:25:00.442Z,13.65
